Pritchett, Colorado
Current Conditions -  °F | °C
As of 11:53 AM on Saturday 25 Oct 2014 (Local Time) from KLAA Reporting Station
Clear Clear  
Wind Chill: 76°   Ceiling: Unl
Heat Index: 76°   Visibility: 9mi
Dew Point: 36°   Wind: 9mph
Humidity: 23%   Direction: 300°WNW
Pressure: 30.11"   Gusts: NA
Location:  37.37°N, 102.86°W
Report Text: KLAA 251753Z AUTO 30008KT 9SM CLR 24/02 A3011 RMK AO2 SLP163 T02440022 10244 20039 58013
Loading
Personal Weather Stations






























Interactive Weather Map
Tropical Storm Tracking
New forecast layout! Learn more

10-Day Weather Forecast

Advertisements
Track Severe Weather on mobile